City Of Vicksburg — WDC2660 — position and weather

sailwx.info

Track history (hours):
 
Tides and Currents Weather Stations Pressure Air Temp Water Temp Dewpoint Dewpoint Depression Visibility Wind Speed Wind Dir Waves Ship Positions

City Of Vicksburg

Owner: Kirby Inland Marine LP, Houston, TX. More information available from US FCC via Universal Licensing System and Coast Guard Vessel Documentation Center.

Last reported at 2015-May-16 03:16 UTC. Time now 2015-May-24 07:21 UTC.
Position N 30°45' W 091°30'.
Warning: this ship's position is 8 days out of date.

Length 320 m.

Type: Towing. MMSI: 366996120.

Date/timePositionNaut miles runAvg speedWind from/ knotsBaromVisibWave heightAir tempDewpointWater temp
2015-May-16 03:16N 30°45' W 091°30'4 5.7
2015-May-16 02:33N 30°45' W 091°26'5 4.6
2015-May-16 01:33N 30°42' W 091°21'6 5.7
2015-May-16 00:33N 30°38' W 091°18'4 4.1
2015-May-15 23:34N 30°34' W 091°15'4 3.7
2015-May-15 22:34N 30°30' W 091°15'4 3.8
2015-May-15 21:33N 30°28' W 091°12'5 4.9
2015-May-15 20:33N 30°23' W 091°13'1 1.2
2015-May-15 19:25N 30°22' W 091°15'0 0.0
2015-May-15 18:31N 30°22' W 091°15'0 0.0
2015-May-15 17:33N 30°22' W 091°15'  
2015-May-08 13:16N 29°60' W 090°27'0 0.0
2015-May-08 12:32N 29°60' W 090°27'15 0.3
2015-May-06 17:07N 29°57' W 090°10'2 4.1
2015-May-06 16:32N 29°55' W 090°08'5 4.7
2015-May-06 15:33N 29°57' W 090°04'4 3.6
2015-May-06 14:28N 29°56' W 089°59'  
Track history (hours):
 
Tides and Currents Weather Stations Pressure Air Temp Water Temp Dewpoint Dewpoint Depression Visibility Wind Speed Wind Dir Waves Ship Positions

City Of Vicksburg

Owner: Kirby Inland Marine LP, Houston, TX. More information available from US FCC via Universal Licensing System and Coast Guard Vessel Documentation Center.

Last reported at 2015-May-16 03:16 UTC. Time now 2015-May-24 07:21 UTC.
Position N 30°45' W 091°30'.
Warning: this ship's position is 8 days out of date.

Length 320 m.

Type: Towing. MMSI: 366996120.

Date/timePositionNaut miles runAvg speedWind from/ knotsBaromVisibWave heightAir tempDewpointWater temp
2015-May-16 03:16N 30°45' W 091°30'4 5.7
2015-May-16 02:33N 30°45' W 091°26'5 4.6
2015-May-16 01:33N 30°42' W 091°21'6 5.7
2015-May-16 00:33N 30°38' W 091°18'4 4.1
2015-May-15 23:34N 30°34' W 091°15'4 3.7
2015-May-15 22:34N 30°30' W 091°15'4 3.8
2015-May-15 21:33N 30°28' W 091°12'5 4.9
2015-May-15 20:33N 30°23' W 091°13'1 1.2
2015-May-15 19:25N 30°22' W 091°15'0 0.0
2015-May-15 18:31N 30°22' W 091°15'0 0.0
2015-May-15 17:33N 30°22' W 091°15'  
2015-May-08 13:16N 29°60' W 090°27'0 0.0
2015-May-08 12:32N 29°60' W 090°27'15 0.3
2015-May-06 17:07N 29°57' W 090°10'2 4.1
2015-May-06 16:32N 29°55' W 090°08'5 4.7
2015-May-06 15:33N 29°57' W 090°04'4 3.6
2015-May-06 14:28N 29°56' W 089°59'  

Dump ship's entire track history